sensor_id;sensor_type;location;lat;lon;timestamp;P1;durP1;ratioP1;P2;durP2;ratioP2
20545;SDS011;10431;50.228;9.112;2023-07-02T00:00:08;5.57;;;2.13;;
20545;SDS011;10431;50.228;9.112;2023-07-02T00:02:35;2.85;;;1.90;;
20545;SDS011;10431;50.228;9.112;2023-07-02T00:05:02;4.95;;;2.20;;
20545;SDS011;10431;50.228;9.112;2023-07-02T00:07:28;5.40;;;2.20;;
20545;SDS011;10431;50.228;9.112;2023-07-02T00:09:54;5.38;;;1.90;;
20545;SDS011;10431;50.228;9.112;2023-07-02T00:12:21;4.20;;;2.10;;
20545;SDS011;10431;50.228;9.112;2023-07-02T00:14:47;2.40;;;1.88;;
20545;SDS011;10431;50.228;9.112;2023-07-02T00:17:13;2.95;;;1.92;;
20545;SDS011;10431;50.228;9.112;2023-07-02T00:19:39;3.88;;;2.03;;
20545;SDS011;10431;50.228;9.112;2023-07-02T00:22:07;4.35;;;1.90;;
20545;SDS011;10431;50.228;9.112;2023-07-02T00:24:34;3.58;;;1.85;;
20545;SDS011;10431;50.228;9.112;2023-07-02T00:27:01;4.40;;;1.83;;
20545;SDS011;10431;50.228;9.112;2023-07-02T00:29:27;2.63;;;1.90;;
20545;SDS011;10431;50.228;9.112;2023-07-02T00:31:53;3.65;;;1.90;;
20545;SDS011;10431;50.228;9.112;2023-07-02T00:34:20;3.13;;;2.10;;
20545;SDS011;10431;50.228;9.112;2023-07-02T00:36:46;3.05;;;1.83;;
20545;SDS011;10431;50.228;9.112;2023-07-02T00:39:12;2.63;;;2.00;;
20545;SDS011;10431;50.228;9.112;2023-07-02T00:41:38;2.88;;;2.05;;
20545;SDS011;10431;50.228;9.112;2023-07-02T00:44:05;2.95;;;2.00;;
20545;SDS011;10431;50.228;9.112;2023-07-02T00:46:31;4.60;;;2.25;;
20545;SDS011;10431;50.228;9.112;2023-07-02T00:48:58;2.40;;;2.13;;
20545;SDS011;10431;50.228;9.112;2023-07-02T00:51:26;4.80;;;2.10;;
20545;SDS011;10431;50.228;9.112;2023-07-02T00:53:54;2.92;;;2.00;;
20545;SDS011;10431;50.228;9.112;2023-07-02T00:56:22;2.65;;;1.92;;
20545;SDS011;10431;50.228;9.112;2023-07-02T00:58:49;4.85;;;2.15;;
20545;SDS011;10431;50.228;9.112;2023-07-02T01:01:18;3.17;;;1.70;;
20545;SDS011;10431;50.228;9.112;2023-07-02T01:03:55;2.92;;;2.03;;
20545;SDS011;10431;50.228;9.112;2023-07-02T01:06:26;3.80;;;2.15;;
20545;SDS011;10431;50.228;9.112;2023-07-02T01:08:54;3.40;;;1.90;;
20545;SDS011;10431;50.228;9.112;2023-07-02T01:11:27;3.45;;;1.88;;
20545;SDS011;10431;50.228;9.112;2023-07-02T01:14:01;3.63;;;1.98;;
20545;SDS011;10431;50.228;9.112;2023-07-02T01:16:31;3.35;;;1.98;;
20545;SDS011;10431;50.228;9.112;2023-07-02T01:18:58;2.38;;;1.60;;
20545;SDS011;10431;50.228;9.112;2023-07-02T01:21:31;3.50;;;1.92;;
20545;SDS011;10431;50.228;9.112;2023-07-02T01:23:58;2.47;;;1.70;;
20545;SDS011;10431;50.228;9.112;2023-07-02T01:26:31;3.67;;;1.92;;
20545;SDS011;10431;50.228;9.112;2023-07-02T01:29:15;2.90;;;2.45;;
20545;SDS011;10431;50.228;9.112;2023-07-02T01:31:43;5.53;;;2.30;;
20545;SDS011;10431;50.228;9.112;2023-07-02T01:34:10;2.50;;;1.80;;
20545;SDS011;10431;50.228;9.112;2023-07-02T01:36:37;2.75;;;1.92;;
20545;SDS011;10431;50.228;9.112;2023-07-02T01:39:04;2.13;;;1.73;;
20545;SDS011;10431;50.228;9.112;2023-07-02T01:41:36;3.05;;;1.70;;
20545;SDS011;10431;50.228;9.112;2023-07-02T01:44:10;2.30;;;1.63;;
20545;SDS011;10431;50.228;9.112;2023-07-02T01:46:37;2.97;;;2.00;;
20545;SDS011;10431;50.228;9.112;2023-07-02T01:49:03;3.40;;;2.13;;
20545;SDS011;10431;50.228;9.112;2023-07-02T01:51:29;2.25;;;1.80;;
20545;SDS011;10431;50.228;9.112;2023-07-02T01:53:55;2.33;;;1.80;;
20545;SDS011;10431;50.228;9.112;2023-07-02T01:56:21;2.33;;;1.60;;
20545;SDS011;10431;50.228;9.112;2023-07-02T01:58:48;2.15;;;1.60;;
20545;SDS011;10431;50.228;9.112;2023-07-02T02:01:14;2.72;;;1.88;;
20545;SDS011;10431;50.228;9.112;2023-07-02T02:03:40;3.90;;;1.70;;
20545;SDS011;10431;50.228;9.112;2023-07-02T02:06:06;2.65;;;1.88;;
20545;SDS011;10431;50.228;9.112;2023-07-02T02:08:32;2.83;;;1.90;;
20545;SDS011;10431;50.228;9.112;2023-07-02T02:10:58;3.30;;;1.75;;
20545;SDS011;10431;50.228;9.112;2023-07-02T02:13:26;2.70;;;1.90;;
20545;SDS011;10431;50.228;9.112;2023-07-02T02:15:53;2.40;;;1.88;;
20545;SDS011;10431;50.228;9.112;2023-07-02T02:18:20;2.85;;;2.00;;
20545;SDS011;10431;50.228;9.112;2023-07-02T02:20:46;3.17;;;1.90;;
20545;SDS011;10431;50.228;9.112;2023-07-02T02:23:12;2.90;;;2.08;;
20545;SDS011;10431;50.228;9.112;2023-07-02T02:25:38;2.60;;;1.90;;
20545;SDS011;10431;50.228;9.112;2023-07-02T02:28:04;5.85;;;1.90;;
20545;SDS011;10431;50.228;9.112;2023-07-02T02:30:30;2.97;;;1.77;;
20545;SDS011;10431;50.228;9.112;2023-07-02T02:32:57;3.67;;;1.83;;
20545;SDS011;10431;50.228;9.112;2023-07-02T02:35:23;2.33;;;1.60;;
20545;SDS011;10431;50.228;9.112;2023-07-02T02:37:50;3.63;;;1.80;;
20545;SDS011;10431;50.228;9.112;2023-07-02T02:40:16;2.90;;;1.73;;
20545;SDS011;10431;50.228;9.112;2023-07-02T02:42:43;2.50;;;1.92;;
20545;SDS011;10431;50.228;9.112;2023-07-02T02:45:09;2.72;;;1.90;;
20545;SDS011;10431;50.228;9.112;2023-07-02T02:47:35;1.80;;;1.67;;
20545;SDS011;10431;50.228;9.112;2023-07-02T02:50:01;4.47;;;1.90;;
20545;SDS011;10431;50.228;9.112;2023-07-02T02:52:30;2.95;;;2.08;;
20545;SDS011;10431;50.228;9.112;2023-07-02T02:54:56;3.00;;;1.90;;
20545;SDS011;10431;50.228;9.112;2023-07-02T02:57:22;2.10;;;1.67;;
20545;SDS011;10431;50.228;9.112;2023-07-02T02:59:48;2.13;;;1.63;;
20545;SDS011;10431;50.228;9.112;2023-07-02T03:02:14;2.70;;;2.00;;
20545;SDS011;10431;50.228;9.112;2023-07-02T03:04:41;2.13;;;1.77;;
20545;SDS011;10431;50.228;9.112;2023-07-02T03:07:09;2.92;;;1.77;;
20545;SDS011;10431;50.228;9.112;2023-07-02T03:09:36;2.25;;;1.70;;
20545;SDS011;10431;50.228;9.112;2023-07-02T03:12:02;2.53;;;1.90;;
20545;SDS011;10431;50.228;9.112;2023-07-02T03:14:28;2.05;;;1.85;;
20545;SDS011;10431;50.228;9.112;2023-07-02T03:16:55;2.70;;;1.65;;
20545;SDS011;10431;50.228;9.112;2023-07-02T03:19:21;3.58;;;1.70;;
20545;SDS011;10431;50.228;9.112;2023-07-02T03:21:47;2.25;;;1.80;;
20545;SDS011;10431;50.228;9.112;2023-07-02T03:24:13;1.80;;;1.60;;
20545;SDS011;10431;50.228;9.112;2023-07-02T03:26:40;2.58;;;1.70;;
20545;SDS011;10431;50.228;9.112;2023-07-02T03:29:06;2.35;;;1.70;;
20545;SDS011;10431;50.228;9.112;2023-07-02T03:31:33;3.78;;;1.80;;
20545;SDS011;10431;50.228;9.112;2023-07-02T03:34:01;2.28;;;1.70;;
20545;SDS011;10431;50.228;9.112;2023-07-02T03:36:32;2.05;;;1.63;;
20545;SDS011;10431;50.228;9.112;2023-07-02T03:38:58;2.65;;;1.90;;
20545;SDS011;10431;50.228;9.112;2023-07-02T03:41:25;2.30;;;1.73;;
20545;SDS011;10431;50.228;9.112;2023-07-02T03:43:51;2.17;;;1.65;;
20545;SDS011;10431;50.228;9.112;2023-07-02T03:46:17;3.75;;;1.60;;
20545;SDS011;10431;50.228;9.112;2023-07-02T03:48:43;2.30;;;1.65;;
20545;SDS011;10431;50.228;9.112;2023-07-02T03:51:10;3.17;;;1.75;;
20545;SDS011;10431;50.228;9.112;2023-07-02T03:53:40;1.98;;;1.50;;
20545;SDS011;10431;50.228;9.112;2023-07-02T03:56:09;2.38;;;1.75;;
20545;SDS011;10431;50.228;9.112;2023-07-02T03:58:35;1.77;;;1.52;;
20545;SDS011;10431;50.228;9.112;2023-07-02T04:01:01;5.00;;;1.95;;
20545;SDS011;10431;50.228;9.112;2023-07-02T04:03:27;3.15;;;1.75;;
20545;SDS011;10431;50.228;9.112;2023-07-02T04:05:54;2.28;;;1.60;;
20545;SDS011;10431;50.228;9.112;2023-07-02T04:08:20;2.13;;;1.48;;
20545;SDS011;10431;50.228;9.112;2023-07-02T04:10:46;3.30;;;1.50;;
20545;SDS011;10431;50.228;9.112;2023-07-02T04:13:12;2.00;;;1.60;;
20545;SDS011;10431;50.228;9.112;2023-07-02T04:15:39;1.85;;;1.65;;
20545;SDS011;10431;50.228;9.112;2023-07-02T04:18:05;2.63;;;1.58;;
20545;SDS011;10431;50.228;9.112;2023-07-02T04:20:31;3.42;;;1.73;;
20545;SDS011;10431;50.228;9.112;2023-07-02T04:22:57;1.70;;;1.40;;
20545;SDS011;10431;50.228;9.112;2023-07-02T04:25:26;2.47;;;1.67;;
20545;SDS011;10431;50.228;9.112;2023-07-02T04:27:52;2.83;;;1.67;;
20545;SDS011;10431;50.228;9.112;2023-07-02T04:30:22;2.03;;;1.55;;
20545;SDS011;10431;50.228;9.112;2023-07-02T04:32:48;2.25;;;1.60;;
20545;SDS011;10431;50.228;9.112;2023-07-02T04:35:14;2.30;;;1.80;;
20545;SDS011;10431;50.228;9.112;2023-07-02T04:37:40;2.13;;;1.52;;
20545;SDS011;10431;50.228;9.112;2023-07-02T04:40:06;2.00;;;1.70;;
20545;SDS011;10431;50.228;9.112;2023-07-02T04:42:38;2.28;;;1.60;;
20545;SDS011;10431;50.228;9.112;2023-07-02T04:45:05;4.10;;;1.70;;
20545;SDS011;10431;50.228;9.112;2023-07-02T04:47:36;2.45;;;1.55;;
20545;SDS011;10431;50.228;9.112;2023-07-02T04:50:03;4.45;;;1.70;;
20545;SDS011;10431;50.228;9.112;2023-07-02T04:52:29;5.93;;;1.63;;
20545;SDS011;10431;50.228;9.112;2023-07-02T04:54:55;2.10;;;1.70;;
20545;SDS011;10431;50.228;9.112;2023-07-02T04:57:21;2.13;;;1.60;;
20545;SDS011;10431;50.228;9.112;2023-07-02T04:59:48;2.70;;;1.60;;
20545;SDS011;10431;50.228;9.112;2023-07-02T05:02:14;3.15;;;1.85;;
20545;SDS011;10431;50.228;9.112;2023-07-02T05:04:40;1.83;;;1.63;;
20545;SDS011;10431;50.228;9.112;2023-07-02T05:07:07;2.05;;;1.70;;
20545;SDS011;10431;50.228;9.112;2023-07-02T05:09:33;2.60;;;1.67;;
20545;SDS011;10431;50.228;9.112;2023-07-02T05:11:59;2.53;;;1.52;;
20545;SDS011;10431;50.228;9.112;2023-07-02T05:14:25;2.88;;;1.70;;
20545;SDS011;10431;50.228;9.112;2023-07-02T05:16:51;1.77;;;1.65;;
20545;SDS011;10431;50.228;9.112;2023-07-02T05:19:17;3.63;;;1.67;;
20545;SDS011;10431;50.228;9.112;2023-07-02T05:21:44;4.35;;;1.80;;
20545;SDS011;10431;50.228;9.112;2023-07-02T05:24:10;2.38;;;1.92;;
20545;SDS011;10431;50.228;9.112;2023-07-02T05:26:36;4.80;;;1.80;;
20545;SDS011;10431;50.228;9.112;2023-07-02T05:29:02;1.98;;;1.77;;
20545;SDS011;10431;50.228;9.112;2023-07-02T05:31:28;3.10;;;1.70;;
20545;SDS011;10431;50.228;9.112;2023-07-02T05:33:54;2.50;;;1.67;;
20545;SDS011;10431;50.228;9.112;2023-07-02T05:36:20;1.77;;;1.60;;
20545;SDS011;10431;50.228;9.112;2023-07-02T05:38:47;2.30;;;1.73;;
20545;SDS011;10431;50.228;9.112;2023-07-02T05:41:19;2.13;;;1.75;;
20545;SDS011;10431;50.228;9.112;2023-07-02T05:43:46;2.90;;;1.60;;
20545;SDS011;10431;50.228;9.112;2023-07-02T05:46:13;2.42;;;1.75;;
20545;SDS011;10431;50.228;9.112;2023-07-02T05:48:41;1.85;;;1.50;;
20545;SDS011;10431;50.228;9.112;2023-07-02T05:51:07;3.05;;;1.70;;
20545;SDS011;10431;50.228;9.112;2023-07-02T05:53:34;2.78;;;1.67;;
20545;SDS011;10431;50.228;9.112;2023-07-02T05:56:00;2.50;;;1.88;;
20545;SDS011;10431;50.228;9.112;2023-07-02T05:58:27;2.33;;;1.85;;
20545;SDS011;10431;50.228;9.112;2023-07-02T06:00:53;3.45;;;1.77;;
20545;SDS011;10431;50.228;9.112;2023-07-02T06:03:19;2.58;;;1.95;;
20545;SDS011;10431;50.228;9.112;2023-07-02T06:05:48;1.63;;;1.52;;
20545;SDS011;10431;50.228;9.112;2023-07-02T06:08:15;2.35;;;1.70;;
20545;SDS011;10431;50.228;9.112;2023-07-02T06:10:42;2.75;;;1.80;;
20545;SDS011;10431;50.228;9.112;2023-07-02T06:13:09;2.00;;;1.70;;
20545;SDS011;10431;50.228;9.112;2023-07-02T06:15:35;2.20;;;1.77;;
20545;SDS011;10431;50.228;9.112;2023-07-02T06:18:01;2.03;;;1.55;;
20545;SDS011;10431;50.228;9.112;2023-07-02T06:20:29;2.28;;;1.60;;
20545;SDS011;10431;50.228;9.112;2023-07-02T06:22:55;2.00;;;1.80;;
20545;SDS011;10431;50.228;9.112;2023-07-02T06:25:21;6.22;;;3.78;;
20545;SDS011;10431;50.228;9.112;2023-07-02T06:27:48;7.55;;;4.43;;
20545;SDS011;10431;50.228;9.112;2023-07-02T06:30:14;12.95;;;6.53;;
20545;SDS011;10431;50.228;9.112;2023-07-02T06:32:40;15.23;;;6.90;;
20545;SDS011;10431;50.228;9.112;2023-07-02T06:35:06;13.80;;;6.95;;
20545;SDS011;10431;50.228;9.112;2023-07-02T06:37:33;12.27;;;7.10;;
20545;SDS011;10431;50.228;9.112;2023-07-02T06:39:59;14.93;;;7.40;;
20545;SDS011;10431;50.228;9.112;2023-07-02T06:42:25;16.33;;;7.80;;
20545;SDS011;10431;50.228;9.112;2023-07-02T06:44:52;13.93;;;6.90;;
20545;SDS011;10431;50.228;9.112;2023-07-02T06:47:18;13.15;;;7.30;;
20545;SDS011;10431;50.228;9.112;2023-07-02T06:49:44;16.05;;;6.80;;
20545;SDS011;10431;50.228;9.112;2023-07-02T06:52:10;18.42;;;7.60;;
20545;SDS011;10431;50.228;9.112;2023-07-02T06:54:36;14.30;;;7.55;;
20545;SDS011;10431;50.228;9.112;2023-07-02T06:57:03;11.13;;;6.72;;
20545;SDS011;10431;50.228;9.112;2023-07-02T06:59:29;10.88;;;6.72;;
20545;SDS011;10431;50.228;9.112;2023-07-02T07:01:55;15.38;;;7.50;;
20545;SDS011;10431;50.228;9.112;2023-07-02T07:04:21;13.20;;;7.45;;
20545;SDS011;10431;50.228;9.112;2023-07-02T07:06:48;14.20;;;7.30;;
20545;SDS011;10431;50.228;9.112;2023-07-02T07:09:14;15.40;;;7.40;;
20545;SDS011;10431;50.228;9.112;2023-07-02T07:11:40;13.45;;;7.40;;
20545;SDS011;10431;50.228;9.112;2023-07-02T07:14:06;14.05;;;7.22;;
20545;SDS011;10431;50.228;9.112;2023-07-02T07:16:33;11.68;;;6.88;;
20545;SDS011;10431;50.228;9.112;2023-07-02T07:18:59;12.50;;;7.20;;
20545;SDS011;10431;50.228;9.112;2023-07-02T07:21:25;13.35;;;7.00;;
20545;SDS011;10431;50.228;9.112;2023-07-02T07:23:51;15.90;;;7.07;;
20545;SDS011;10431;50.228;9.112;2023-07-02T07:26:17;11.75;;;6.55;;
20545;SDS011;10431;50.228;9.112;2023-07-02T07:28:44;12.20;;;7.20;;
20545;SDS011;10431;50.228;9.112;2023-07-02T07:31:10;14.38;;;7.50;;
20545;SDS011;10431;50.228;9.112;2023-07-02T07:33:36;11.35;;;7.28;;
20545;SDS011;10431;50.228;9.112;2023-07-02T07:36:02;10.73;;;6.80;;
20545;SDS011;10431;50.228;9.112;2023-07-02T07:38:28;14.25;;;8.15;;
20545;SDS011;10431;50.228;9.112;2023-07-02T07:40:54;14.05;;;6.63;;
20545;SDS011;10431;50.228;9.112;2023-07-02T07:43:21;13.00;;;7.57;;
20545;SDS011;10431;50.228;9.112;2023-07-02T07:45:47;14.00;;;7.10;;
20545;SDS011;10431;50.228;9.112;2023-07-02T07:48:13;12.98;;;7.22;;
20545;SDS011;10431;50.228;9.112;2023-07-02T07:50:40;17.92;;;7.57;;
20545;SDS011;10431;50.228;9.112;2023-07-02T07:53:06;13.43;;;7.05;;
20545;SDS011;10431;50.228;9.112;2023-07-02T07:55:32;11.68;;;7.25;;
20545;SDS011;10431;50.228;9.112;2023-07-02T07:57:59;13.05;;;7.35;;
20545;SDS011;10431;50.228;9.112;2023-07-02T08:00:25;15.70;;;7.70;;
20545;SDS011;10431;50.228;9.112;2023-07-02T08:02:52;13.60;;;7.72;;
20545;SDS011;10431;50.228;9.112;2023-07-02T08:05:21;15.18;;;7.82;;
20545;SDS011;10431;50.228;9.112;2023-07-02T08:07:48;14.07;;;7.68;;
20545;SDS011;10431;50.228;9.112;2023-07-02T08:10:14;15.07;;;7.82;;
20545;SDS011;10431;50.228;9.112;2023-07-02T08:12:41;17.95;;;7.78;;
20545;SDS011;10431;50.228;9.112;2023-07-02T08:15:07;15.07;;;7.85;;
20545;SDS011;10431;50.228;9.112;2023-07-02T08:17:34;15.55;;;7.68;;
20545;SDS011;10431;50.228;9.112;2023-07-02T08:20:00;13.88;;;7.00;;
20545;SDS011;10431;50.228;9.112;2023-07-02T08:22:26;15.23;;;7.50;;
20545;SDS011;10431;50.228;9.112;2023-07-02T08:24:53;16.15;;;8.15;;
20545;SDS011;10431;50.228;9.112;2023-07-02T08:27:20;11.40;;;7.53;;
20545;SDS011;10431;50.228;9.112;2023-07-02T08:29:46;13.00;;;7.60;;
20545;SDS011;10431;50.228;9.112;2023-07-02T08:32:13;18.25;;;8.05;;
20545;SDS011;10431;50.228;9.112;2023-07-02T08:34:39;14.90;;;7.85;;
20545;SDS011;10431;50.228;9.112;2023-07-02T08:37:05;13.90;;;7.45;;
20545;SDS011;10431;50.228;9.112;2023-07-02T08:39:31;12.95;;;7.53;;
20545;SDS011;10431;50.228;9.112;2023-07-02T08:41:58;14.40;;;7.82;;
20545;SDS011;10431;50.228;9.112;2023-07-02T08:44:24;12.88;;;7.45;;
20545;SDS011;10431;50.228;9.112;2023-07-02T08:46:51;11.55;;;6.85;;
20545;SDS011;10431;50.228;9.112;2023-07-02T08:49:20;17.55;;;8.65;;
20545;SDS011;10431;50.228;9.112;2023-07-02T08:51:47;15.55;;;8.40;;
20545;SDS011;10431;50.228;9.112;2023-07-02T08:54:13;11.90;;;7.90;;
20545;SDS011;10431;50.228;9.112;2023-07-02T08:56:40;20.95;;;8.43;;
20545;SDS011;10431;50.228;9.112;2023-07-02T08:59:07;19.15;;;8.07;;
20545;SDS011;10431;50.228;9.112;2023-07-02T09:01:55;15.90;;;8.50;;
20545;SDS011;10431;50.228;9.112;2023-07-02T09:04:21;19.42;;;9.23;;
20545;SDS011;10431;50.228;9.112;2023-07-02T09:06:50;17.85;;;9.00;;
20545;SDS011;10431;50.228;9.112;2023-07-02T09:09:28;15.00;;;8.93;;
20545;SDS011;10431;50.228;9.112;2023-07-02T09:11:55;19.27;;;8.55;;
20545;SDS011;10431;50.228;9.112;2023-07-02T09:17:08;19.40;;;9.10;;
20545;SDS011;10431;50.228;9.112;2023-07-02T09:19:35;13.70;;;8.80;;
20545;SDS011;10431;50.228;9.112;2023-07-02T09:22:02;21.73;;;9.07;;
20545;SDS011;10431;50.228;9.112;2023-07-02T09:24:29;15.10;;;8.93;;
20545;SDS011;10431;50.228;9.112;2023-07-02T09:27:00;17.42;;;8.75;;
20545;SDS011;10431;50.228;9.112;2023-07-02T09:29:33;17.58;;;9.57;;
20545;SDS011;10431;50.228;9.112;2023-07-02T09:32:00;14.95;;;9.00;;
20545;SDS011;10431;50.228;9.112;2023-07-02T09:34:32;16.98;;;8.95;;
20545;SDS011;10431;50.228;9.112;2023-07-02T09:37:01;17.65;;;9.32;;
20545;SDS011;10431;50.228;9.112;2023-07-02T09:39:32;14.55;;;8.73;;
20545;SDS011;10431;50.228;9.112;2023-07-02T09:42:00;16.88;;;9.05;;
20545;SDS011;10431;50.228;9.112;2023-07-02T09:46:58;16.50;;;9.35;;
20545;SDS011;10431;50.228;9.112;2023-07-02T09:49:34;17.48;;;9.70;;
20545;SDS011;10431;50.228;9.112;2023-07-02T09:52:05;15.88;;;8.65;;
20545;SDS011;10431;50.228;9.112;2023-07-02T09:54:33;15.02;;;8.60;;
20545;SDS011;10431;50.228;9.112;2023-07-02T09:56:59;17.70;;;9.30;;
20545;SDS011;10431;50.228;9.112;2023-07-02T09:59:26;17.38;;;9.10;;
20545;SDS011;10431;50.228;9.112;2023-07-02T10:01:53;14.70;;;8.75;;
20545;SDS011;10431;50.228;9.112;2023-07-02T10:04:20;15.02;;;8.85;;
20545;SDS011;10431;50.228;9.112;2023-07-02T10:09:20;14.32;;;8.55;;
20545;SDS011;10431;50.228;9.112;2023-07-02T10:11:47;15.75;;;9.13;;
20545;SDS011;10431;50.228;9.112;2023-07-02T10:14:13;17.45;;;9.18;;
20545;SDS011;10431;50.228;9.112;2023-07-02T10:16:49;14.30;;;8.35;;
20545;SDS011;10431;50.228;9.112;2023-07-02T10:19:16;12.75;;;8.25;;
20545;SDS011;10431;50.228;9.112;2023-07-02T10:21:42;14.05;;;8.75;;
20545;SDS011;10431;50.228;9.112;2023-07-02T10:24:15;14.10;;;8.05;;
20545;SDS011;10431;50.228;9.112;2023-07-02T10:26:58;14.00;;;8.27;;
20545;SDS011;10431;50.228;9.112;2023-07-02T10:29:26;16.30;;;8.73;;
20545;SDS011;10431;50.228;9.112;2023-07-02T10:31:55;15.18;;;8.38;;
20545;SDS011;10431;50.228;9.112;2023-07-02T10:34:32;13.77;;;8.40;;
20545;SDS011;10431;50.228;9.112;2023-07-02T10:37:00;12.82;;;8.43;;
20545;SDS011;10431;50.228;9.112;2023-07-02T10:39:27;14.57;;;8.02;;
20545;SDS011;10431;50.228;9.112;2023-07-02T10:42:08;12.63;;;8.60;;
20545;SDS011;10431;50.228;9.112;2023-07-02T10:44:46;12.50;;;8.05;;
20545;SDS011;10431;50.228;9.112;2023-07-02T10:47:13;11.68;;;7.53;;
20545;SDS011;10431;50.228;9.112;2023-07-02T10:49:39;15.10;;;9.10;;
20545;SDS011;10431;50.228;9.112;2023-07-02T10:52:05;14.00;;;8.32;;
20545;SDS011;10431;50.228;9.112;2023-07-02T10:57:13;16.52;;;8.30;;
20545;SDS011;10431;50.228;9.112;2023-07-02T10:59:41;13.77;;;8.43;;
20545;SDS011;10431;50.228;9.112;2023-07-02T11:02:08;13.50;;;8.40;;
20545;SDS011;10431;50.228;9.112;2023-07-02T11:04:35;13.30;;;8.52;;
20545;SDS011;10431;50.228;9.112;2023-07-02T11:07:03;14.80;;;8.68;;
20545;SDS011;10431;50.228;9.112;2023-07-02T11:09:30;13.25;;;8.43;;
20545;SDS011;10431;50.228;9.112;2023-07-02T11:11:57;12.50;;;8.00;;
20545;SDS011;10431;50.228;9.112;2023-07-02T11:14:34;13.25;;;7.53;;
20545;SDS011;10431;50.228;9.112;2023-07-02T11:17:05;10.90;;;7.65;;
20545;SDS011;10431;50.228;9.112;2023-07-02T11:19:33;14.23;;;8.25;;
20545;SDS011;10431;50.228;9.112;2023-07-02T11:21:59;12.23;;;8.02;;
20545;SDS011;10431;50.228;9.112;2023-07-02T11:24:27;13.73;;;8.05;;
20545;SDS011;10431;50.228;9.112;2023-07-02T11:27:03;11.90;;;8.25;;
20545;SDS011;10431;50.228;9.112;2023-07-02T11:29:31;11.15;;;7.75;;
20545;SDS011;10431;50.228;9.112;2023-07-02T11:32:08;15.20;;;8.30;;
20545;SDS011;10431;50.228;9.112;2023-07-02T11:34:36;13.48;;;7.82;;
20545;SDS011;10431;50.228;9.112;2023-07-02T11:37:05;13.07;;;7.75;;
20545;SDS011;10431;50.228;9.112;2023-07-02T11:39:32;11.90;;;7.70;;
20545;SDS011;10431;50.228;9.112;2023-07-02T11:41:58;11.57;;;7.70;;
20545;SDS011;10431;50.228;9.112;2023-07-02T11:44:24;13.75;;;8.00;;
20545;SDS011;10431;50.228;9.112;2023-07-02T11:46:51;11.32;;;8.18;;
20545;SDS011;10431;50.228;9.112;2023-07-02T11:49:18;11.00;;;8.02;;
20545;SDS011;10431;50.228;9.112;2023-07-02T11:51:44;11.85;;;8.23;;
20545;SDS011;10431;50.228;9.112;2023-07-02T11:54:14;12.85;;;7.85;;
20545;SDS011;10431;50.228;9.112;2023-07-02T11:56:41;12.13;;;7.70;;
20545;SDS011;10431;50.228;9.112;2023-07-02T11:59:08;11.50;;;8.25;;
20545;SDS011;10431;50.228;9.112;2023-07-02T12:01:35;11.43;;;7.78;;
20545;SDS011;10431;50.228;9.112;2023-07-02T12:04:01;13.20;;;8.10;;
20545;SDS011;10431;50.228;9.112;2023-07-02T12:06:27;14.73;;;9.75;;
20545;SDS011;10431;50.228;9.112;2023-07-02T12:08:53;19.17;;;10.07;;
20545;SDS011;10431;50.228;9.112;2023-07-02T12:11:20;16.75;;;10.38;;
20545;SDS011;10431;50.228;9.112;2023-07-02T12:13:46;21.02;;;10.80;;
20545;SDS011;10431;50.228;9.112;2023-07-02T12:16:12;22.42;;;9.68;;
20545;SDS011;10431;50.228;9.112;2023-07-02T12:18:38;15.50;;;9.80;;
20545;SDS011;10431;50.228;9.112;2023-07-02T12:21:04;14.30;;;10.00;;
20545;SDS011;10431;50.228;9.112;2023-07-02T12:23:30;19.20;;;9.88;;
20545;SDS011;10431;50.228;9.112;2023-07-02T12:25:57;18.50;;;9.68;;
20545;SDS011;10431;50.228;9.112;2023-07-02T12:28:23;18.60;;;10.38;;
20545;SDS011;10431;50.228;9.112;2023-07-02T12:30:49;17.45;;;10.77;;
20545;SDS011;10431;50.228;9.112;2023-07-02T12:33:15;17.63;;;10.23;;
20545;SDS011;10431;50.228;9.112;2023-07-02T12:35:41;15.98;;;9.40;;
20545;SDS011;10431;50.228;9.112;2023-07-02T12:38:07;18.98;;;10.18;;
20545;SDS011;10431;50.228;9.112;2023-07-02T12:40:34;17.35;;;9.73;;
20545;SDS011;10431;50.228;9.112;2023-07-02T12:43:00;18.13;;;9.65;;
20545;SDS011;10431;50.228;9.112;2023-07-02T12:45:26;15.90;;;9.75;;
20545;SDS011;10431;50.228;9.112;2023-07-02T12:47:52;17.83;;;9.93;;
20545;SDS011;10431;50.228;9.112;2023-07-02T12:50:19;15.40;;;10.25;;
20545;SDS011;10431;50.228;9.112;2023-07-02T12:52:45;16.73;;;9.02;;
20545;SDS011;10431;50.228;9.112;2023-07-02T12:55:11;16.45;;;9.60;;
20545;SDS011;10431;50.228;9.112;2023-07-02T12:57:37;15.88;;;9.60;;
20545;SDS011;10431;50.228;9.112;2023-07-02T13:00:04;15.98;;;9.73;;
20545;SDS011;10431;50.228;9.112;2023-07-02T13:02:34;14.80;;;9.48;;
20545;SDS011;10431;50.228;9.112;2023-07-02T13:05:00;16.55;;;9.90;;
20545;SDS011;10431;50.228;9.112;2023-07-02T13:07:26;14.60;;;9.30;;
20545;SDS011;10431;50.228;9.112;2023-07-02T13:09:55;13.85;;;8.77;;
20545;SDS011;10431;50.228;9.112;2023-07-02T13:12:22;14.05;;;9.15;;
20545;SDS011;10431;50.228;9.112;2023-07-02T13:14:48;13.77;;;9.07;;
20545;SDS011;10431;50.228;9.112;2023-07-02T13:17:14;15.13;;;9.52;;
20545;SDS011;10431;50.228;9.112;2023-07-02T13:19:40;15.35;;;9.07;;
20545;SDS011;10431;50.228;9.112;2023-07-02T13:22:06;15.90;;;9.73;;
20545;SDS011;10431;50.228;9.112;2023-07-02T13:24:33;18.40;;;9.68;;
20545;SDS011;10431;50.228;9.112;2023-07-02T13:27:03;13.38;;;9.15;;
20545;SDS011;10431;50.228;9.112;2023-07-02T13:29:32;15.75;;;8.90;;
20545;SDS011;10431;50.228;9.112;2023-07-02T13:31:58;14.93;;;8.98;;
20545;SDS011;10431;50.228;9.112;2023-07-02T13:34:24;12.90;;;8.43;;
20545;SDS011;10431;50.228;9.112;2023-07-02T13:36:51;16.13;;;10.55;;
20545;SDS011;10431;50.228;9.112;2023-07-02T13:39:18;19.65;;;11.48;;
20545;SDS011;10431;50.228;9.112;2023-07-02T13:41:44;21.38;;;10.60;;
20545;SDS011;10431;50.228;9.112;2023-07-02T13:44:10;22.85;;;10.75;;
20545;SDS011;10431;50.228;9.112;2023-07-02T13:46:36;22.48;;;10.98;;
20545;SDS011;10431;50.228;9.112;2023-07-02T13:49:02;20.30;;;10.50;;
20545;SDS011;10431;50.228;9.112;2023-07-02T13:51:28;15.57;;;9.77;;
20545;SDS011;10431;50.228;9.112;2023-07-02T13:53:55;18.45;;;10.65;;
20545;SDS011;10431;50.228;9.112;2023-07-02T13:56:21;21.15;;;10.90;;
20545;SDS011;10431;50.228;9.112;2023-07-02T14:01:25;15.05;;;9.93;;
20545;SDS011;10431;50.228;9.112;2023-07-02T14:03:52;17.50;;;10.93;;
20545;SDS011;10431;50.228;9.112;2023-07-02T14:06:19;21.75;;;10.90;;
20545;SDS011;10431;50.228;9.112;2023-07-02T14:08:46;17.95;;;10.30;;
20545;SDS011;10431;50.228;9.112;2023-07-02T14:11:12;16.92;;;10.02;;
20545;SDS011;10431;50.228;9.112;2023-07-02T14:13:38;22.88;;;11.13;;
20545;SDS011;10431;50.228;9.112;2023-07-02T14:16:04;21.30;;;10.27;;
20545;SDS011;10431;50.228;9.112;2023-07-02T14:18:30;19.73;;;10.55;;
20545;SDS011;10431;50.228;9.112;2023-07-02T14:20:57;16.80;;;11.07;;
20545;SDS011;10431;50.228;9.112;2023-07-02T14:23:23;18.08;;;10.85;;
20545;SDS011;10431;50.228;9.112;2023-07-02T14:25:49;18.58;;;10.77;;
20545;SDS011;10431;50.228;9.112;2023-07-02T14:28:15;22.73;;;10.70;;
20545;SDS011;10431;50.228;9.112;2023-07-02T14:30:42;17.23;;;10.95;;
20545;SDS011;10431;50.228;9.112;2023-07-02T14:33:08;16.90;;;10.80;;
20545;SDS011;10431;50.228;9.112;2023-07-02T14:35:34;17.42;;;10.15;;
20545;SDS011;10431;50.228;9.112;2023-07-02T14:38:01;17.90;;;10.30;;
20545;SDS011;10431;50.228;9.112;2023-07-02T14:40:27;18.25;;;10.07;;
20545;SDS011;10431;50.228;9.112;2023-07-02T14:42:54;17.63;;;10.27;;
20545;SDS011;10431;50.228;9.112;2023-07-02T14:45:20;21.55;;;10.80;;
20545;SDS011;10431;50.228;9.112;2023-07-02T14:47:46;16.63;;;9.98;;
20545;SDS011;10431;50.228;9.112;2023-07-02T14:50:12;19.08;;;10.27;;